Time;durP1;ratioP1;P1;durP2;ratioP2;P2;SDS_P1;SDS_P2;PMS_P1;PMS_P2;Temp;Humidity;BMP_temperature;BMP_pressure;BME280_temperature;BME280_humidity;BME280_pressure;Samples;Min_cycle;Max_cycle;Signal;HPM_P1;HPM_P2
2022/07/31 00:01:24;;;;;;;20.90;13.60;;;;;;;;;;2565502;53;21078;-83
2022/07/31 00:03:51;;;;;;;22.87;13.82;;;;;;;;;;2323718;57;21055;-83
2022/07/31 00:06:18;;;;;;;17.60;11.77;;;;;;;;;;2324163;57;21133;-83
2022/07/31 00:08:45;;;;;;;23.70;16.05;;;;;;;;;;2324063;57;21058;-83
2022/07/31 00:11:12;;;;;;;19.48;13.07;;;;;;;;;;2324665;58;21134;-83
2022/07/31 00:13:39;;;;;;;27.30;17.48;;;;;;;;;;2566313;53;21050;-83
2022/07/31 00:16:06;;;;;;;20.58;15.30;;;;;;;;;;2566160;53;21456;-83
2022/07/31 00:18:34;;;;;;;18.55;14.48;;;;;;;;;;2323469;57;21062;-84
2022/07/31 00:21:01;;;;;;;20.58;13.07;;;;;;;;;;2566063;54;21094;-83
2022/07/31 00:23:28;;;;;;;20.95;13.50;;;;;;;;;;2324732;58;21082;-83
2022/07/31 00:25:55;;;;;;;19.33;12.70;;;;;;;;;;2324079;57;21071;-84
2022/07/31 00:28:22;;;;;;;19.27;12.90;;;;;;;;;;2566284;53;21092;-83
2022/07/31 00:30:49;;;;;;;19.35;14.38;;;;;;;;;;2324863;57;21154;-83
2022/07/31 00:33:16;;;;;;;21.30;14.95;;;;;;;;;;2324029;57;21063;-83
2022/07/31 00:35:43;;;;;;;23.67;15.20;;;;;;;;;;2565011;53;21587;-83
2022/07/31 00:38:10;;;;;;;22.50;14.85;;;;;;;;;;2566462;53;21047;-83
2022/07/31 00:40:45;;;;;;;23.05;15.10;;;;;;;;;;2324221;57;21107;-84
2022/07/31 00:43:13;;;;;;;24.60;15.30;;;;;;;;;;2324432;58;21155;-83
2022/07/31 00:45:40;;;;;;;25.98;16.30;;;;;;;;;;2565636;53;21066;-84
2022/07/31 00:48:07;;;;;;;21.42;14.35;;;;;;;;;;2324244;57;21063;-83
2022/07/31 00:50:34;;;;;;;21.58;14.57;;;;;;;;;;2566662;54;21107;-83
2022/07/31 00:53:01;;;;;;;20.08;13.88;;;;;;;;;;2324098;57;21139;-84
2022/07/31 00:55:29;;;;;;;18.62;13.13;;;;;;;;;;2324322;58;21142;-83
2022/07/31 00:57:56;;;;;;;19.65;14.25;;;;;;;;;;2324678;57;21071;-84
2022/07/31 01:00:23;;;;;;;21.48;14.80;;;;;;;;;;2565990;53;21064;-84
2022/07/31 01:02:50;;;;;;;24.67;14.65;;;;;;;;;;2566151;53;21119;-84
2022/07/31 01:05:17;;;;;;;23.05;16.30;;;;;;;;;;2324139;57;21107;-82
2022/07/31 01:07:44;;;;;;;26.55;18.35;;;;;;;;;;2564767;53;21098;-83
2022/07/31 01:10:14;;;;;;;15.98;12.37;;;;;;;;;;2565452;53;21119;-83
2022/07/31 01:12:45;;;;;;;19.70;15.15;;;;;;;;;;2565471;53;21052;-83
2022/07/31 01:15:15;;;;;;;23.40;15.77;;;;;;;;;;2564968;54;21067;-83
2022/07/31 01:17:46;;;;;;;23.15;15.05;;;;;;;;;;2322415;58;21146;-84
2022/07/31 01:20:14;;;;;;;22.17;14.43;;;;;;;;;;2566044;53;21075;-83
2022/07/31 01:22:50;;;;;;;22.37;15.65;;;;;;;;;;2324503;58;21039;-84
2022/07/31 01:25:32;;;;;;;21.35;14.20;;;;;;;;;;2566075;53;21067;-82
2022/07/31 01:28:02;;;;;;;20.45;14.05;;;;;;;;;;2566752;53;21059;-83
2022/07/31 01:30:32;;;;;;;23.40;16.48;;;;;;;;;;2324674;57;21063;-84
2022/07/31 01:33:00;;;;;;;23.65;15.75;;;;;;;;;;2566314;53;21035;-83
2022/07/31 01:35:28;;;;;;;27.02;16.67;;;;;;;;;;2323130;58;21147;-84
2022/07/31 01:37:58;;;;;;;20.40;14.77;;;;;;;;;;2565854;53;21132;-83
2022/07/31 01:40:27;;;;;;;22.60;15.75;;;;;;;;;;2566033;53;21051;-84
2022/07/31 01:42:56;;;;;;;20.27;13.55;;;;;;;;;;2566517;53;21047;-84
2022/07/31 01:45:25;;;;;;;23.50;14.40;;;;;;;;;;2566269;53;21071;-83
2022/07/31 01:47:52;;;;;;;20.30;12.82;;;;;;;;;;2324379;58;22175;-84
2022/07/31 01:50:20;;;;;;;18.90;13.32;;;;;;;;;;2324211;58;21544;-84
2022/07/31 01:52:49;;;;;;;20.58;13.93;;;;;;;;;;2323449;57;21130;-84
2022/07/31 01:55:17;;;;;;;22.73;13.45;;;;;;;;;;2324117;58;21091;-83
2022/07/31 01:57:45;;;;;;;16.33;11.50;;;;;;;;;;2566221;53;21072;-84
2022/07/31 02:00:13;;;;;;;16.55;12.65;;;;;;;;;;2566187;53;21057;-83
2022/07/31 02:02:40;;;;;;;18.12;12.80;;;;;;;;;;2567066;53;21118;-84
2022/07/31 02:05:10;;;;;;;18.23;11.75;;;;;;;;;;2566041;53;21035;-84
2022/07/31 02:07:39;;;;;;;15.95;11.15;;;;;;;;;;2566151;53;21131;-84
2022/07/31 02:10:07;;;;;;;14.95;12.00;;;;;;;;;;2324642;58;21068;-84
2022/07/31 02:12:35;;;;;;;15.88;10.98;;;;;;;;;;2323700;57;21604;-84
2022/07/31 02:15:02;;;;;;;13.62;10.38;;;;;;;;;;2566005;53;21051;-84
2022/07/31 02:17:30;;;;;;;19.83;11.45;;;;;;;;;;2323946;57;21138;-83
2022/07/31 02:19:59;;;;;;;14.90;11.18;;;;;;;;;;2324081;57;21047;-83
2022/07/31 02:22:26;;;;;;;18.80;12.00;;;;;;;;;;2324464;58;21139;-83
2022/07/31 02:24:53;;;;;;;14.63;11.60;;;;;;;;;;2566360;53;21101;-84
2022/07/31 02:27:21;;;;;;;14.52;10.93;;;;;;;;;;2566614;53;21059;-83
2022/07/31 02:29:49;;;;;;;21.58;12.90;;;;;;;;;;2324345;57;21083;-84
2022/07/31 02:32:16;;;;;;;19.87;12.70;;;;;;;;;;2566680;53;21031;-84
2022/07/31 02:34:44;;;;;;;17.27;12.05;;;;;;;;;;2566442;53;21131;-82
2022/07/31 02:37:13;;;;;;;16.42;12.02;;;;;;;;;;2324076;58;21067;-84
2022/07/31 02:39:41;;;;;;;18.85;12.07;;;;;;;;;;2323982;58;21575;-84
2022/07/31 02:42:09;;;;;;;13.73;11.12;;;;;;;;;;2566361;53;21051;-83
2022/07/31 02:44:37;;;;;;;13.02;10.32;;;;;;;;;;2566083;53;21123;-84
2022/07/31 02:47:04;;;;;;;14.65;12.02;;;;;;;;;;2323935;58;21553;-84
2022/07/31 02:49:32;;;;;;;14.48;11.63;;;;;;;;;;2323901;58;21639;-84
2022/07/31 02:51:59;;;;;;;12.25;9.52;;;;;;;;;;2566049;53;21119;-84
2022/07/31 02:54:27;;;;;;;15.55;12.23;;;;;;;;;;2565648;53;21063;-84
2022/07/31 02:56:55;;;;;;;15.40;12.63;;;;;;;;;;2565384;53;21142;-83
2022/07/31 02:59:22;;;;;;;17.90;12.95;;;;;;;;;;2324504;58;21085;-84
2022/07/31 03:01:49;;;;;;;19.70;13.13;;;;;;;;;;2566214;54;21528;-84
2022/07/31 03:04:16;;;;;;;17.50;13.90;;;;;;;;;;2566381;53;21095;-83
2022/07/31 03:06:43;;;;;;;20.52;13.65;;;;;;;;;;2566454;53;21055;-83
2022/07/31 03:09:11;;;;;;;16.00;11.80;;;;;;;;;;2324543;58;21094;-84
2022/07/31 03:11:38;;;;;;;17.42;11.45;;;;;;;;;;2323655;58;21068;-84
2022/07/31 03:14:06;;;;;;;18.05;13.10;;;;;;;;;;2566146;53;21098;-84
2022/07/31 03:16:34;;;;;;;22.33;14.07;;;;;;;;;;2565620;54;21131;-84
2022/07/31 03:19:01;;;;;;;17.73;11.23;;;;;;;;;;2565925;53;21063;-83
2022/07/31 03:21:29;;;;;;;15.35;12.57;;;;;;;;;;2565696;53;21067;-84
2022/07/31 03:23:56;;;;;;;16.45;12.82;;;;;;;;;;2566680;53;21646;-84
2022/07/31 03:26:23;;;;;;;15.35;12.10;;;;;;;;;;2324142;58;21123;-83
2022/07/31 03:28:50;;;;;;;15.02;11.48;;;;;;;;;;2323803;57;21063;-84
2022/07/31 03:31:17;;;;;;;14.40;11.93;;;;;;;;;;2323903;58;21114;-84
2022/07/31 03:33:44;;;;;;;14.38;11.60;;;;;;;;;;2324588;57;21143;-84
2022/07/31 03:36:11;;;;;;;15.43;12.07;;;;;;;;;;2566233;53;21774;-84
2022/07/31 03:38:38;;;;;;;18.73;12.13;;;;;;;;;;2324104;58;21190;-83
2022/07/31 03:41:05;;;;;;;11.75;9.25;;;;;;;;;;2324299;57;21131;-83
2022/07/31 03:43:33;;;;;;;14.55;10.85;;;;;;;;;;2324593;57;21146;-84
2022/07/31 03:46:01;;;;;;;17.73;12.43;;;;;;;;;;2323364;58;21051;-84
2022/07/31 03:48:29;;;;;;;10.45;8.77;;;;;;;;;;2566417;53;21051;-83
2022/07/31 03:50:57;;;;;;;18.62;12.00;;;;;;;;;;2324158;58;21079;-84
2022/07/31 03:53:24;;;;;;;13.65;10.65;;;;;;;;;;2324064;57;21067;-84
2022/07/31 03:55:51;;;;;;;12.93;10.80;;;;;;;;;;2323864;58;21051;-84
2022/07/31 03:58:19;;;;;;;10.57;9.00;;;;;;;;;;2566393;53;21147;-83
2022/07/31 04:00:46;;;;;;;13.70;10.43;;;;;;;;;;2565780;53;21051;-84
2022/07/31 04:03:13;;;;;;;15.38;9.40;;;;;;;;;;2566369;53;21158;-84
2022/07/31 04:05:40;;;;;;;8.32;7.43;;;;;;;;;;2565494;53;21055;-82
2022/07/31 04:08:08;;;;;;;12.18;8.23;;;;;;;;;;2324153;58;21573;-84
2022/07/31 04:10:35;;;;;;;12.05;8.60;;;;;;;;;;2324514;58;21135;-83
2022/07/31 04:13:02;;;;;;;12.65;9.32;;;;;;;;;;2566219;53;21110;-84
2022/07/31 04:15:30;;;;;;;11.82;9.10;;;;;;;;;;2323858;57;21059;-83
2022/07/31 04:17:57;;;;;;;12.77;8.90;;;;;;;;;;2323848;57;21555;-84
2022/07/31 04:20:24;;;;;;;11.02;9.15;;;;;;;;;;2324185;57;21107;-84
2022/07/31 04:22:52;;;;;;;13.00;9.55;;;;;;;;;;2566127;53;21135;-84
2022/07/31 04:25:19;;;;;;;22.10;13.88;;;;;;;;;;2566103;53;21111;-82
2022/07/31 04:27:45;;;;;;;16.45;11.65;;;;;;;;;;2565447;53;21106;-83
2022/07/31 04:30:13;;;;;;;13.32;10.15;;;;;;;;;;2324253;58;21135;-84
2022/07/31 04:32:40;;;;;;;15.95;11.80;;;;;;;;;;2566230;53;21078;-84
2022/07/31 04:35:08;;;;;;;20.60;14.35;;;;;;;;;;2566397;53;21659;-83
2022/07/31 04:37:35;;;;;;;13.55;9.63;;;;;;;;;;2566115;53;21066;-84
2022/07/31 04:40:02;;;;;;;15.13;11.63;;;;;;;;;;2565788;53;21063;-84
2022/07/31 04:42:29;;;;;;;16.15;13.07;;;;;;;;;;2324083;57;21623;-84
2022/07/31 04:44:56;;;;;;;21.30;15.07;;;;;;;;;;2322685;58;21643;-83
2022/07/31 04:47:23;;;;;;;24.65;17.45;;;;;;;;;;2323287;57;21123;-83
2022/07/31 04:49:51;;;;;;;26.10;18.40;;;;;;;;;;2324537;58;21087;-84
2022/07/31 04:52:18;;;;;;;20.85;15.20;;;;;;;;;;2324186;58;21139;-84
2022/07/31 04:54:45;;;;;;;19.48;14.98;;;;;;;;;;2324675;58;21055;-83
2022/07/31 04:57:12;;;;;;;21.20;14.05;;;;;;;;;;2566243;53;21099;-83
2022/07/31 04:59:39;;;;;;;20.35;13.88;;;;;;;;;;2565282;53;21059;-83
2022/07/31 05:02:06;;;;;;;21.83;14.30;;;;;;;;;;2323926;58;21043;-83
2022/07/31 05:04:33;;;;;;;19.40;13.10;;;;;;;;;;2324453;58;21067;-83
2022/07/31 05:07:00;;;;;;;19.62;13.38;;;;;;;;;;2565394;53;21099;-83
2022/07/31 05:09:32;;;;;;;23.70;15.77;;;;;;;;;;2324209;58;21053;-83
2022/07/31 05:11:59;;;;;;;28.75;18.45;;;;;;;;;;2565735;53;21583;-83
2022/07/31 05:14:26;;;;;;;21.37;16.48;;;;;;;;;;2565880;53;21055;-82
2022/07/31 05:16:53;;;;;;;25.75;17.10;;;;;;;;;;2323688;58;21040;-84
2022/07/31 05:19:20;;;;;;;24.17;16.92;;;;;;;;;;2563986;53;21623;-83
2022/07/31 05:21:47;;;;;;;27.20;15.35;;;;;;;;;;2448195;52;21117;-84
2022/07/31 05:24:14;;;;;;;25.02;14.38;;;;;;;;;;2353618;57;21076;-84
2022/07/31 05:26:42;;;;;;;18.92;14.85;;;;;;;;;;2353279;55;21191;-84
2022/07/31 05:29:08;;;;;;;17.62;12.98;;;;;;;;;;2408918;53;21102;-83
2022/07/31 05:31:35;;;;;;;19.20;13.55;;;;;;;;;;2373106;53;21073;-84
2022/07/31 05:34:02;;;;;;;21.75;13.20;;;;;;;;;;2381187;56;21058;-84
2022/07/31 05:36:29;;;;;;;17.67;13.52;;;;;;;;;;2380902;52;21051;-84
2022/07/31 05:38:56;;;;;;;19.48;14.38;;;;;;;;;;2381393;56;21027;-84
2022/07/31 05:41:23;;;;;;;14.63;10.65;;;;;;;;;;2381902;56;21618;-84
2022/07/31 05:43:51;;;;;;;15.88;11.63;;;;;;;;;;2385113;52;21008;-84
2022/07/31 05:46:18;;;;;;;17.58;11.60;;;;;;;;;;2381847;56;20995;-85
2022/07/31 05:48:45;;;;;;;17.42;12.48;;;;;;;;;;2411044;52;21030;-84
2022/07/31 05:51:12;;;;;;;14.63;11.15;;;;;;;;;;2381437;56;21082;-84
2022/07/31 05:53:41;;;;;;;19.45;11.45;;;;;;;;;;2381512;56;21006;-83
2022/07/31 05:56:08;;;;;;;16.00;12.85;;;;;;;;;;2381335;56;21043;-83
2022/07/31 05:58:35;;;;;;;14.93;11.12;;;;;;;;;;2380802;56;21101;-82
2022/07/31 06:01:03;;;;;;;17.65;10.85;;;;;;;;;;2380602;56;21053;-84
2022/07/31 06:03:34;;;;;;;15.27;10.93;;;;;;;;;;2411309;52;21102;-83
2022/07/31 06:06:02;;;;;;;17.25;11.85;;;;;;;;;;2379462;56;21119;-82
2022/07/31 06:08:30;;;;;;;14.82;11.10;;;;;;;;;;2376920;56;21126;-82
2022/07/31 06:10:57;;;;;;;19.10;11.55;;;;;;;;;;2377667;56;21066;-83
2022/07/31 06:13:25;;;;;;;16.00;11.05;;;;;;;;;;2378937;56;21031;-82
2022/07/31 06:15:52;;;;;;;14.30;9.52;;;;;;;;;;2377880;56;21051;-82
2022/07/31 06:18:19;;;;;;;14.65;10.48;;;;;;;;;;2408669;52;21099;-82
2022/07/31 06:20:46;;;;;;;18.20;11.98;;;;;;;;;;2378182;56;21047;-83
2022/07/31 06:23:13;;;;;;;14.32;11.25;;;;;;;;;;2377162;56;21134;-82
2022/07/31 06:25:40;;;;;;;21.73;13.25;;;;;;;;;;2377389;56;21083;-83
2022/07/31 06:28:07;;;;;;;16.60;13.07;;;;;;;;;;2378092;56;21043;-85
2022/07/31 06:30:34;;;;;;;17.77;13.55;;;;;;;;;;2407503;52;21086;-83
2022/07/31 06:33:01;;;;;;;18.23;12.75;;;;;;;;;;2381866;52;21170;-82
2022/07/31 06:35:28;;;;;;;15.30;12.35;;;;;;;;;;2382526;52;21095;-82
2022/07/31 06:37:55;;;;;;;18.67;12.43;;;;;;;;;;2384109;52;21050;-83
2022/07/31 06:40:22;;;;;;;22.23;12.65;;;;;;;;;;2378294;56;21094;-83
2022/07/31 06:42:49;;;;;;;17.98;12.25;;;;;;;;;;2376568;56;21047;-82
2022/07/31 06:45:16;;;;;;;13.25;10.57;;;;;;;;;;2377205;56;21202;-81
2022/07/31 06:47:43;;;;;;;13.23;9.02;;;;;;;;;;2378133;56;21059;-83
2022/07/31 06:50:10;;;;;;;18.05;10.63;;;;;;;;;;2376836;56;21528;-82
2022/07/31 06:52:37;;;;;;;13.85;9.60;;;;;;;;;;2377322;56;21062;-82
2022/07/31 06:55:05;;;;;;;13.20;8.65;;;;;;;;;;2378109;56;21110;-83
2022/07/31 06:57:32;;;;;;;11.20;8.93;;;;;;;;;;2377899;56;21613;-83
2022/07/31 06:59:59;;;;;;;10.50;7.28;;;;;;;;;;2378192;56;21070;-82
2022/07/31 07:02:26;;;;;;;11.45;7.82;;;;;;;;;;2418145;52;21070;-83
2022/07/31 07:04:53;;;;;;;10.63;8.40;;;;;;;;;;2378375;56;21063;-82
2022/07/31 07:07:20;;;;;;;12.70;8.45;;;;;;;;;;2377685;56;21118;-83
2022/07/31 07:09:47;;;;;;;8.35;6.07;;;;;;;;;;2378112;52;21082;-83
2022/07/31 07:12:15;;;;;;;9.20;7.32;;;;;;;;;;2418281;52;21146;-82
2022/07/31 07:14:41;;;;;;;8.48;6.50;;;;;;;;;;2377082;55;21050;-83
2022/07/31 07:17:08;;;;;;;8.55;6.85;;;;;;;;;;2375717;56;21031;-84
2022/07/31 07:19:39;;;;;;;11.40;7.32;;;;;;;;;;2376221;54;21104;-82
2022/07/31 07:22:06;;;;;;;11.02;7.20;;;;;;;;;;2376838;56;21035;-82
2022/07/31 07:24:33;;;;;;;12.75;7.95;;;;;;;;;;2376079;56;21108;-83
2022/07/31 07:27:00;;;;;;;10.60;7.55;;;;;;;;;;2376141;56;21117;-82
2022/07/31 07:29:27;;;;;;;12.27;8.93;;;;;;;;;;2376078;56;21610;-82
2022/07/31 07:31:54;;;;;;;12.73;9.02;;;;;;;;;;2376721;56;21050;-82
2022/07/31 07:34:21;;;;;;;9.73;7.45;;;;;;;;;;2375944;56;21531;-82
2022/07/31 07:36:48;;;;;;;8.73;6.43;;;;;;;;;;2415941;52;22122;-81
2022/07/31 07:39:15;;;;;;;13.70;7.68;;;;;;;;;;2396688;52;21101;-81
2022/07/31 07:41:42;;;;;;;12.05;6.37;;;;;;;;;;2376070;54;21054;-83
2022/07/31 07:44:09;;;;;;;9.40;5.70;;;;;;;;;;2376995;56;21118;-84
2022/07/31 07:46:36;;;;;;;8.00;4.60;;;;;;;;;;2430611;52;21109;-83
2022/07/31 07:49:03;;;;;;;10.63;5.68;;;;;;;;;;2378095;56;21054;-84
2022/07/31 07:51:31;;;;;;;9.18;5.50;;;;;;;;;;2377920;55;21042;-84
2022/07/31 07:53:57;;;;;;;6.35;5.03;;;;;;;;;;2377333;56;21102;-84
2022/07/31 07:56:25;;;;;;;6.53;4.50;;;;;;;;;;2376757;54;21574;-83
2022/07/31 07:58:51;;;;;;;10.65;4.75;;;;;;;;;;2377454;56;21038;-84
2022/07/31 08:01:19;;;;;;;5.68;4.20;;;;;;;;;;2377004;56;21371;-83
2022/07/31 08:03:46;;;;;;;7.28;4.05;;;;;;;;;;2376318;56;21050;-83
2022/07/31 08:06:13;;;;;;;6.87;4.07;;;;;;;;;;2379543;52;21538;-82
2022/07/31 08:08:40;;;;;;;4.82;3.62;;;;;;;;;;2376496;56;21039;-83
2022/07/31 08:11:07;;;;;;;8.63;4.15;;;;;;;;;;2376587;56;21039;-84
2022/07/31 08:13:34;;;;;;;6.57;3.83;;;;;;;;;;2378006;52;21495;-85
2022/07/31 08:16:01;;;;;;;8.55;3.60;;;;;;;;;;2376644;56;21043;-84
2022/07/31 08:18:30;;;;;;;7.28;3.37;;;;;;;;;;2379078;56;21042;-81
2022/07/31 08:20:57;;;;;;;10.60;3.70;;;;;;;;;;2380158;52;21137;-80
2022/07/31 08:23:24;;;;;;;7.07;3.90;;;;;;;;;;2374738;56;21106;-80
2022/07/31 08:25:51;;;;;;;7.65;3.90;;;;;;;;;;2374124;56;21058;-81
2022/07/31 08:28:18;;;;;;;7.80;3.65;;;;;;;;;;2375292;56;21122;-81
2022/07/31 08:30:45;;;;;;;7.68;3.53;;;;;;;;;;2427279;52;21101;-81
2022/07/31 08:33:12;;;;;;;5.55;3.78;;;;;;;;;;2374866;54;21039;-80
2022/07/31 08:35:39;;;;;;;6.43;3.17;;;;;;;;;;2416029;52;21125;-80
2022/07/31 08:38:06;;;;;;;5.57;3.40;;;;;;;;;;2396579;52;21027;-80
2022/07/31 08:40:33;;;;;;;5.07;3.42;;;;;;;;;;2375320;56;21083;-81
2022/07/31 08:43:00;;;;;;;7.18;3.53;;;;;;;;;;2374316;56;21039;-81
2022/07/31 08:45:28;;;;;;;5.32;2.95;;;;;;;;;;2374642;56;21610;-80
2022/07/31 08:47:55;;;;;;;6.70;4.03;;;;;;;;;;2375369;56;21059;-80
2022/07/31 08:50:23;;;;;;;4.95;3.95;;;;;;;;;;2374006;56;21126;-80
2022/07/31 08:52:50;;;;;;;7.18;4.12;;;;;;;;;;2373734;56;21527;-81
2022/07/31 08:55:17;;;;;;;9.45;4.65;;;;;;;;;;2373744;56;21642;-75
2022/07/31 08:57:47;;;;;;;7.90;4.78;;;;;;;;;;2373810;56;21706;-75
2022/07/31 09:00:18;;;;;;;6.18;4.30;;;;;;;;;;2373430;56;21618;-76
2022/07/31 09:05:20;;;;;;;10.25;6.15;;;;;;;;;;2306951;57;38682;-80
2022/07/31 09:07:47;;;;;;;9.30;4.82;;;;;;;;;;2317225;58;21035;-82
2022/07/31 09:10:21;;;;;;;7.57;4.80;;;;;;;;;;2321563;57;21102;-80
2022/07/31 09:12:48;;;;;;;9.43;5.65;;;;;;;;;;2432309;53;22114;-76
2022/07/31 09:15:23;;;;;;;9.13;4.68;;;;;;;;;;2345215;57;21534;-76
2022/07/31 09:17:50;;;;;;;8.98;5.15;;;;;;;;;;2346373;57;21143;-76
2022/07/31 09:20:19;;;;;;;5.78;4.05;;;;;;;;;;2345770;57;21568;-76
2022/07/31 09:22:47;;;;;;;9.73;5.03;;;;;;;;;;2346438;57;21005;-76
2022/07/31 09:25:17;;;;;;;5.50;4.18;;;;;;;;;;2343607;57;21100;-79
2022/07/31 09:27:44;;;;;;;6.93;4.40;;;;;;;;;;2358446;53;21040;-78
2022/07/31 09:30:13;;;;;;;9.50;4.68;;;;;;;;;;2344798;57;21543;-74
2022/07/31 09:32:42;;;;;;;9.48;4.95;;;;;;;;;;2344540;57;21065;-76
2022/07/31 09:35:12;;;;;;;8.38;4.43;;;;;;;;;;2427508;53;21025;-75
2022/07/31 09:37:39;;;;;;;5.68;3.80;;;;;;;;;;2344161;57;21517;-75
2022/07/31 09:40:08;;;;;;;7.53;3.80;;;;;;;;;;2344368;57;21020;-75
2022/07/31 09:42:36;;;;;;;6.00;3.45;;;;;;;;;;2400336;53;21025;-76
2022/07/31 09:45:03;;;;;;;5.30;3.25;;;;;;;;;;2442149;53;21601;-75
2022/07/31 09:47:31;;;;;;;6.43;3.80;;;;;;;;;;2346722;57;21093;-76
2022/07/31 09:50:00;;;;;;;7.05;3.47;;;;;;;;;;2345444;57;21033;-77
2022/07/31 09:52:27;;;;;;;4.35;3.20;;;;;;;;;;2353079;53;21723;-81
2022/07/31 09:55:01;;;;;;;7.18;3.20;;;;;;;;;;2345910;57;21037;-84
2022/07/31 09:57:27;;;;;;;;;;;;;;;;;;2349576;57;21104;-77
2022/07/31 09:59:55;;;;;;;3.85;2.72;;;;;;;;;;2345877;57;20070;-77
2022/07/31 10:02:24;;;;;;;6.93;3.30;;;;;;;;;;2349680;53;21032;-76
2022/07/31 10:04:53;;;;;;;5.78;2.40;;;;;;;;;;2346367;57;21374;-81
2022/07/31 10:07:24;;;;;;;8.85;2.78;;;;;;;;;;2344843;57;21636;-78
2022/07/31 10:09:52;;;;;;;5.65;2.97;;;;;;;;;;2346131;57;21731;-78
2022/07/31 10:12:19;;;;;;;3.80;2.40;;;;;;;;;;2348017;55;21497;-81
2022/07/31 10:14:47;;;;;;;6.80;3.85;;;;;;;;;;2348743;57;21009;-81
2022/07/31 10:17:18;;;;;;;6.10;2.85;;;;;;;;;;2350726;53;21036;-76
2022/07/31 10:19:46;;;;;;;4.72;2.70;;;;;;;;;;2345243;57;21612;-82
2022/07/31 10:22:17;;;;;;;3.15;2.37;;;;;;;;;;2344852;55;21051;-81
2022/07/31 10:24:46;;;;;;;3.95;2.60;;;;;;;;;;2345535;57;21088;-80
2022/07/31 10:27:15;;;;;;;5.45;2.60;;;;;;;;;;2366671;53;21092;-80
2022/07/31 10:29:43;;;;;;;4.40;2.42;;;;;;;;;;2349500;53;21104;-81
2022/07/31 10:32:10;;;;;;;5.85;2.62;;;;;;;;;;2353325;53;21054;-81
2022/07/31 10:34:37;;;;;;;4.00;2.12;;;;;;;;;;2359499;53;21076;-80
2022/07/31 10:37:07;;;;;;;3.05;2.75;;;;;;;;;;2347170;53;21036;-81
2022/07/31 10:39:38;;;;;;;2.92;2.00;;;;;;;;;;2358020;53;21045;-80
2022/07/31 10:42:12;;;;;;;4.20;2.10;;;;;;;;;;2347152;57;21084;-81
2022/07/31 10:44:41;;;;;;;6.12;2.55;;;;;;;;;;2346805;57;21077;-80
2022/07/31 10:47:15;;;;;;;4.03;2.12;;;;;;;;;;2346827;57;21036;-80
2022/07/31 10:49:43;;;;;;;3.58;2.05;;;;;;;;;;2346653;57;21124;-81
2022/07/31 10:52:10;;;;;;;5.05;2.37;;;;;;;;;;2347227;57;21088;-81
2022/07/31 10:54:41;;;;;;;4.87;2.45;;;;;;;;;;2352657;53;21068;-80
2022/07/31 10:57:08;;;;;;;3.47;2.10;;;;;;;;;;2346596;57;21597;-80
2022/07/31 10:59:35;;;;;;;5.25;1.83;;;;;;;;;;2347488;57;21025;-81
2022/07/31 11:02:02;;;;;;;2.30;1.87;;;;;;;;;;2346906;57;21029;-81
2022/07/31 11:04:31;;;;;;;2.30;1.40;;;;;;;;;;2347333;57;21104;-82
2022/07/31 11:06:58;;;;;;;3.25;1.40;;;;;;;;;;2346366;57;21680;-83
2022/07/31 11:09:26;;;;;;;2.45;1.73;;;;;;;;;;2349254;53;21091;-82
2022/07/31 11:11:53;;;;;;;3.20;1.73;;;;;;;;;;2347223;57;21613;-83
2022/07/31 11:14:31;;;;;;;6.12;1.77;;;;;;;;;;2347458;57;21108;-83
2022/07/31 11:16:58;;;;;;;2.85;2.10;;;;;;;;;;2346788;57;21072;-83
2022/07/31 11:19:25;;;;;;;2.05;1.70;;;;;;;;;;2346757;57;21108;-83
2022/07/31 11:21:56;;;;;;;5.65;1.62;;;;;;;;;;2343515;54;21824;-87
2022/07/31 11:24:23;;;;;;;7.18;2.25;;;;;;;;;;2331199;58;21084;-88
2022/07/31 11:26:50;;;;;;;2.40;2.05;;;;;;;;;;2571377;54;21104;-87
2022/07/31 11:29:26;;;;;;;4.07;1.65;;;;;;;;;;2331501;58;21127;-87
2022/07/31 11:31:53;;;;;;;4.57;1.70;;;;;;;;;;2572571;54;21088;-89
2022/07/31 11:34:20;;;;;;;5.78;1.87;;;;;;;;;;2572707;54;21073;-88
2022/07/31 11:36:48;;;;;;;3.85;2.00;;;;;;;;;;2330294;58;21049;-87
2022/07/31 11:39:15;;;;;;;2.47;2.00;;;;;;;;;;2330136;58;21769;-88
2022/07/31 11:41:43;;;;;;;3.42;2.00;;;;;;;;;;2330584;58;21704;-87
2022/07/31 11:44:10;;;;;;;3.08;1.60;;;;;;;;;;2331238;58;21168;-87
2022/07/31 11:46:37;;;;;;;1.83;1.73;;;;;;;;;;2330360;58;21072;-88
2022/07/31 11:49:04;;;;;;;5.45;1.87;;;;;;;;;;2332157;58;21870;-87
2022/07/31 11:51:31;;;;;;;2.22;1.50;;;;;;;;;;2331078;58;21049;-87
2022/07/31 11:53:59;;;;;;;2.95;1.50;;;;;;;;;;2331644;57;21104;-88
2022/07/31 11:56:27;;;;;;;3.95;2.08;;;;;;;;;;2572512;53;21062;-88
2022/07/31 11:58:54;;;;;;;5.15;1.73;;;;;;;;;;2331323;57;21006;-87
2022/07/31 12:01:26;;;;;;;8.65;1.60;;;;;;;;;;2330920;58;21033;-88
2022/07/31 12:03:53;;;;;;;2.67;1.73;;;;;;;;;;2331211;58;21092;-87
2022/07/31 12:06:20;;;;;;;4.10;1.65;;;;;;;;;;2572746;54;21053;-87
2022/07/31 12:08:48;;;;;;;3.65;1.70;;;;;;;;;;2330948;58;21073;-87
2022/07/31 12:11:16;;;;;;;5.15;1.98;;;;;;;;;;2330846;58;22073;-86
2022/07/31 12:13:46;;;;;;;3.08;1.70;;;;;;;;;;2331542;57;21617;-88
2022/07/31 12:16:13;;;;;;;3.70;1.80;;;;;;;;;;2330942;57;21061;-87
2022/07/31 12:18:46;;;;;;;3.10;2.00;;;;;;;;;;2331435;58;21655;-87
2022/07/31 12:21:13;;;;;;;;;;;;;;;;;;2333336;58;21073;-86
2022/07/31 12:23:40;;;;;;;2.78;1.60;;;;;;;;;;2571738;54;20083;-87
2022/07/31 12:26:07;;;;;;;3.72;1.77;;;;;;;;;;2331289;58;21030;-88
2022/07/31 12:28:35;;;;;;;2.95;1.65;;;;;;;;;;2331766;57;21148;-87
2022/07/31 12:31:02;;;;;;;2.58;1.73;;;;;;;;;;2330769;58;21060;-87
2022/07/31 12:33:39;;;;;;;1.98;1.58;;;;;;;;;;2574134;53;21053;-88
2022/07/31 12:36:12;;;;;;;3.22;2.03;;;;;;;;;;2331043;58;21054;-88
2022/07/31 12:38:39;;;;;;;4.35;2.20;;;;;;;;;;2331528;57;21228;-88
2022/07/31 12:41:07;;;;;;;3.37;2.05;;;;;;;;;;2331269;58;21736;-87
2022/07/31 12:43:34;;;;;;;3.40;1.87;;;;;;;;;;2330957;58;21045;-88
2022/07/31 12:46:04;;;;;;;2.92;2.05;;;;;;;;;;2330680;58;21085;-89
2022/07/31 12:48:32;;;;;;;3.35;2.30;;;;;;;;;;2573156;53;21109;-88
2022/07/31 12:50:59;;;;;;;4.12;2.00;;;;;;;;;;2331393;58;21074;-87
2022/07/31 12:53:28;;;;;;;3.17;1.55;;;;;;;;;;2331201;58;21093;-87
2022/07/31 12:55:55;;;;;;;5.12;2.20;;;;;;;;;;2330295;58;21033;-87
2022/07/31 12:58:22;;;;;;;4.55;1.70;;;;;;;;;;2330900;58;21061;-88
2022/07/31 13:00:49;;;;;;;7.18;2.17;;;;;;;;;;2573403;54;21085;-89
2022/07/31 13:03:16;;;;;;;4.12;2.10;;;;;;;;;;2330999;58;21078;-88
2022/07/31 13:05:44;;;;;;;3.90;1.92;;;;;;;;;;2330824;58;21045;-88
2022/07/31 13:08:11;;;;;;;4.37;1.92;;;;;;;;;;2330913;58;21108;-87
2022/07/31 13:10:39;;;;;;;3.05;1.98;;;;;;;;;;2572279;53;21085;-89
2022/07/31 13:13:06;;;;;;;4.07;2.62;;;;;;;;;;2331497;57;21645;-87
2022/07/31 13:15:33;;;;;;;2.45;1.80;;;;;;;;;;2331052;57;21154;-88
2022/07/31 13:18:01;;;;;;;3.95;2.28;;;;;;;;;;2330987;58;21034;-88
2022/07/31 13:20:29;;;;;;;4.07;2.67;;;;;;;;;;2573814;53;21664;-89
2022/07/31 13:22:57;;;;;;;2.20;1.87;;;;;;;;;;2332015;57;21068;-89
2022/07/31 13:25:25;;;;;;;4.68;2.05;;;;;;;;;;2331224;58;21089;-88
2022/07/31 13:27:52;;;;;;;4.30;2.03;;;;;;;;;;2331228;58;21187;-90
2022/07/31 13:30:19;;;;;;;3.75;2.10;;;;;;;;;;2332122;58;21024;-89
2022/07/31 13:32:46;;;;;;;3.75;1.90;;;;;;;;;;2331344;58;21601;-89
2022/07/31 13:35:13;;;;;;;3.85;1.83;;;;;;;;;;2331538;58;21064;-89
2022/07/31 13:37:40;;;;;;;2.12;1.80;;;;;;;;;;2330820;58;21106;-88
2022/07/31 13:40:09;;;;;;;4.12;2.03;;;;;;;;;;2330992;58;21049;-89
2022/07/31 13:42:36;;;;;;;3.95;2.20;;;;;;;;;;2331464;58;21069;-88
2022/07/31 13:45:03;;;;;;;3.53;2.12;;;;;;;;;;2572341;53;21569;-89
2022/07/31 13:47:31;;;;;;;2.87;2.17;;;;;;;;;;2330913;58;21024;-88
2022/07/31 13:49:58;;;;;;;3.42;2.10;;;;;;;;;;2331498;58;21069;-88
2022/07/31 13:52:25;;;;;;;5.40;1.98;;;;;;;;;;2331782;58;21038;-88
2022/07/31 13:54:52;;;;;;;6.60;1.83;;;;;;;;;;2331361;57;21833;-87
2022/07/31 13:57:19;;;;;;;2.67;1.90;;;;;;;;;;2330708;58;21064;-88
2022/07/31 13:59:46;;;;;;;4.03;2.10;;;;;;;;;;2331598;57;21021;-89
2022/07/31 14:02:13;;;;;;;4.07;2.30;;;;;;;;;;2332272;58;21145;-90
2022/07/31 14:04:40;;;;;;;2.25;1.70;;;;;;;;;;2331954;58;21053;-89
2022/07/31 14:07:08;;;;;;;2.67;1.60;;;;;;;;;;2572800;54;21073;-89
2022/07/31 14:09:36;;;;;;;2.50;2.03;;;;;;;;;;2331732;58;21100;-88
2022/07/31 14:12:03;;;;;;;3.17;1.95;;;;;;;;;;2331591;58;21121;-89
2022/07/31 14:14:30;;;;;;;4.18;1.95;;;;;;;;;;2331807;58;21554;-89
2022/07/31 14:16:57;;;;;;;6.50;2.55;;;;;;;;;;2331441;58;21533;-88
2022/07/31 14:19:24;;;;;;;3.15;2.00;;;;;;;;;;2331863;57;21101;-89
2022/07/31 14:21:51;;;;;;;3.50;1.83;;;;;;;;;;2331330;58;21021;-87
2022/07/31 14:24:18;;;;;;;3.97;1.98;;;;;;;;;;2330803;58;21048;-88
2022/07/31 14:26:46;;;;;;;4.68;2.08;;;;;;;;;;2330498;58;21051;-88
2022/07/31 14:29:13;;;;;;;3.05;2.00;;;;;;;;;;2330497;58;21819;-87
2022/07/31 14:31:40;;;;;;;4.37;2.15;;;;;;;;;;2330266;58;21610;-88
2022/07/31 14:34:07;;;;;;;2.75;1.90;;;;;;;;;;2331367;58;21045;-88
2022/07/31 14:36:34;;;;;;;4.07;1.80;;;;;;;;;;2330725;58;21081;-88